Time;durP1;ratioP1;P1;durP2;ratioP2;P2;SDS_P1;SDS_P2;PMS_P1;PMS_P2;Temp;Humidity;BMP_temperature;BMP_pressure;BME280_temperature;BME280_humidity;BME280_pressure;Samples;Min_cycle;Max_cycle;Signal;HPM_P1;HPM_P2
2023/06/06 00:02:05;;;;;;;5.50;2.40;;;;;;;;;;6349480;28;20027;-81
2023/06/06 00:05:07;;;;;;;4.33;1.60;;;;;;;;;;6349193;28;20028;-81
2023/06/06 00:08:07;;;;;;;7.38;2.28;;;;;;;;;;6349908;28;20015;-81
2023/06/06 00:11:09;;;;;;;2.17;1.70;;;;;;;;;;6351069;28;20019;-81
2023/06/06 00:14:10;;;;;;;5.32;2.83;;;;;;;;;;6357584;28;20015;-81
2023/06/06 00:17:10;;;;;;;5.97;2.97;;;;;;;;;;6349029;28;20026;-81
2023/06/06 00:20:11;;;;;;;13.23;2.90;;;;;;;;;;6355204;28;20023;-81
2023/06/06 00:23:12;;;;;;;2.60;1.83;;;;;;;;;;6348288;27;20054;-81
2023/06/06 00:26:12;;;;;;;7.13;2.00;;;;;;;;;;6349945;28;20015;-81
2023/06/06 00:29:13;;;;;;;3.80;1.97;;;;;;;;;;6346079;28;20462;-81
2023/06/06 00:32:13;;;;;;;3.67;1.97;;;;;;;;;;6346137;28;20046;-81
2023/06/06 00:35:13;;;;;;;5.40;2.17;;;;;;;;;;6344575;28;20477;-81
2023/06/06 00:38:13;;;;;;;9.47;2.90;;;;;;;;;;6343854;28;20463;-81
2023/06/06 00:41:13;;;;;;;4.43;1.67;;;;;;;;;;6344507;28;20058;-81
2023/06/06 00:44:14;;;;;;;4.27;2.37;;;;;;;;;;6348231;28;20359;-82
2023/06/06 00:47:15;;;;;;;4.13;2.70;;;;;;;;;;6347982;28;20020;-81
2023/06/06 00:50:16;;;;;;;6.63;2.30;;;;;;;;;;6344434;28;20130;-81
2023/06/06 00:53:17;;;;;;;6.38;2.00;;;;;;;;;;6338181;28;20027;-82
2023/06/06 00:56:17;;;;;;;2.77;1.97;;;;;;;;;;6347858;28;20037;-81
2023/06/06 00:59:18;;;;;;;4.60;1.93;;;;;;;;;;6343688;28;20019;-81
2023/06/06 01:02:18;;;;;;;6.00;1.92;;;;;;;;;;6338703;28;20637;-81
2023/06/06 01:05:20;;;;;;;4.03;1.40;;;;;;;;;;6345854;28;20057;-82
2023/06/06 01:08:20;;;;;;;2.67;2.10;;;;;;;;;;6339213;28;20058;-82
2023/06/06 01:11:26;;;;;;;6.30;1.93;;;;;;;;;;6343093;28;20490;-81
2023/06/06 01:14:45;;;;;;;4.53;2.13;;;;;;;;;;6333285;28;20111;-81
2023/06/06 01:17:46;;;;;;;4.30;1.92;;;;;;;;;;6341698;28;20023;-81
2023/06/06 01:20:46;;;;;;;4.87;2.07;;;;;;;;;;6348017;28;20031;-82
2023/06/06 01:23:46;;;;;;;3.23;2.00;;;;;;;;;;6346229;28;20514;-81
2023/06/06 01:26:47;;;;;;;3.30;1.90;;;;;;;;;;6348288;28;20024;-81
2023/06/06 01:29:50;;;;;;;7.17;2.27;;;;;;;;;;6345182;28;20026;-81
2023/06/06 01:33:03;;;;;;;4.93;1.85;;;;;;;;;;6347775;28;20474;-81
2023/06/06 01:36:12;;;;;;;5.18;1.58;;;;;;;;;;6344625;28;20060;-82
2023/06/06 01:39:15;;;;;;;4.45;2.17;;;;;;;;;;6333754;28;20028;-80
2023/06/06 01:42:16;;;;;;;3.85;1.90;;;;;;;;;;6350095;28;20024;-81
2023/06/06 01:45:19;;;;;;;6.40;2.38;;;;;;;;;;6351196;28;20031;-81
2023/06/06 01:48:19;;;;;;;3.28;2.10;;;;;;;;;;6348726;28;20039;-81
2023/06/06 01:51:20;;;;;;;7.13;2.23;;;;;;;;;;6349069;28;20528;-78
2023/06/06 01:54:20;;;;;;;5.10;2.40;;;;;;;;;;6346399;28;20091;-77
2023/06/06 01:57:20;;;;;;;6.88;2.58;;;;;;;;;;6347930;28;20439;-78
2023/06/06 02:00:20;;;;;;;5.15;2.38;;;;;;;;;;6348291;28;20034;-77
2023/06/06 02:03:21;;;;;;;8.30;2.00;;;;;;;;;;6347714;28;20385;-77
2023/06/06 02:06:21;;;;;;;6.60;2.70;;;;;;;;;;6348118;28;20023;-77
2023/06/06 02:09:21;;;;;;;4.30;2.30;;;;;;;;;;6347937;28;20103;-78
2023/06/06 02:12:22;;;;;;;2.83;1.83;;;;;;;;;;6346152;28;20462;-78
2023/06/06 02:15:26;;;;;;;4.93;2.17;;;;;;;;;;6346179;28;20055;-77
2023/06/06 02:18:26;;;;;;;5.03;2.28;;;;;;;;;;6346531;28;20047;-78
2023/06/06 02:21:26;;;;;;;4.88;2.25;;;;;;;;;;6346127;28;20016;-77
2023/06/06 02:24:27;;;;;;;9.57;2.67;;;;;;;;;;6341715;28;20729;-77
2023/06/06 02:27:29;;;;;;;4.97;2.13;;;;;;;;;;6345693;28;20062;-78
2023/06/06 02:30:29;;;;;;;8.05;2.83;;;;;;;;;;6345093;28;20442;-78
2023/06/06 02:33:30;;;;;;;4.23;2.07;;;;;;;;;;6346018;28;20019;-77
2023/06/06 02:36:30;;;;;;;5.00;2.20;;;;;;;;;;6346809;28;20034;-78
2023/06/06 02:39:30;;;;;;;3.73;2.37;;;;;;;;;;6338154;28;20030;-77
2023/06/06 02:42:31;;;;;;;5.70;2.13;;;;;;;;;;6345242;28;20026;-78
2023/06/06 02:45:31;;;;;;;6.60;2.13;;;;;;;;;;6345628;28;20528;-77
2023/06/06 02:48:31;;;;;;;5.53;2.20;;;;;;;;;;6341736;28;20059;-78
2023/06/06 02:51:31;;;;;;;2.85;1.85;;;;;;;;;;6339984;28;20043;-78
2023/06/06 02:54:31;;;;;;;5.10;2.40;;;;;;;;;;6345287;28;20067;-78
2023/06/06 02:57:32;;;;;;;4.53;1.97;;;;;;;;;;6342490;28;20466;-78
2023/06/06 03:00:32;;;;;;;4.18;2.50;;;;;;;;;;6344665;28;20019;-78
2023/06/06 03:03:32;;;;;;;4.07;2.10;;;;;;;;;;6344420;28;20382;-77
2023/06/06 03:06:36;;;;;;;6.27;2.73;;;;;;;;;;6344219;28;20130;-78
2023/06/06 03:09:37;;;;;;;10.45;2.45;;;;;;;;;;6332852;28;20115;-78
2023/06/06 03:12:37;;;;;;;9.40;2.27;;;;;;;;;;6346195;28;20031;-78
2023/06/06 03:15:37;;;;;;;9.60;2.10;;;;;;;;;;6346697;28;20057;-78
2023/06/06 03:18:37;;;;;;;7.53;2.70;;;;;;;;;;6345920;28;20486;-78
2023/06/06 03:21:38;;;;;;;4.07;2.13;;;;;;;;;;6344116;28;20062;-78
2023/06/06 03:24:39;;;;;;;10.30;2.50;;;;;;;;;;6345518;28;20029;-78
2023/06/06 03:27:41;;;;;;;6.78;2.80;;;;;;;;;;6343563;28;20446;-78
2023/06/06 03:30:41;;;;;;;;;;;;;;;;;;6340695;28;20535;-78
2023/06/06 03:33:42;;;;;;;5.05;2.78;;;;;;;;;;6343665;28;19912;-78
2023/06/06 03:36:42;;;;;;;4.43;2.17;;;;;;;;;;6341936;28;20077;-78
2023/06/06 03:39:43;;;;;;;4.67;2.23;;;;;;;;;;6343288;28;20023;-78
2023/06/06 03:42:44;;;;;;;6.15;2.22;;;;;;;;;;6345882;28;20011;-78
2023/06/06 03:45:44;;;;;;;4.60;2.10;;;;;;;;;;6344391;28;20015;-78
2023/06/06 03:48:44;;;;;;;4.20;2.00;;;;;;;;;;6345605;28;20099;-78
2023/06/06 03:51:45;;;;;;;3.27;1.93;;;;;;;;;;6345405;28;20048;-78
2023/06/06 03:54:45;;;;;;;6.23;2.80;;;;;;;;;;6342974;28;20497;-78
2023/06/06 03:57:45;;;;;;;5.60;3.17;;;;;;;;;;6345181;28;20023;-78
2023/06/06 04:00:46;;;;;;;4.83;2.77;;;;;;;;;;6345163;28;20023;-78
2023/06/06 04:03:46;;;;;;;12.53;3.00;;;;;;;;;;6342489;28;20047;-78
2023/06/06 04:06:46;;;;;;;10.07;2.50;;;;;;;;;;6338784;28;20065;-78
2023/06/06 04:09:46;;;;;;;4.37;2.30;;;;;;;;;;6344496;28;20461;-78
2023/06/06 04:12:47;;;;;;;6.78;2.42;;;;;;;;;;6344070;28;20023;-78
2023/06/06 04:15:48;;;;;;;6.43;2.77;;;;;;;;;;6344490;28;20049;-78
2023/06/06 04:18:48;;;;;;;7.88;2.60;;;;;;;;;;6344202;28;20069;-78
2023/06/06 04:21:50;;;;;;;8.93;2.80;;;;;;;;;;6344542;28;20020;-78
2023/06/06 04:24:50;;;;;;;6.78;2.53;;;;;;;;;;6344322;28;20030;-78
2023/06/06 04:27:51;;;;;;;7.97;2.60;;;;;;;;;;6344245;28;20028;-78
2023/06/06 04:30:52;;;;;;;6.40;2.40;;;;;;;;;;6343666;28;20034;-78
2023/06/06 04:33:54;;;;;;;4.38;2.28;;;;;;;;;;6339742;28;20030;-78
2023/06/06 04:36:56;;;;;;;5.65;3.25;;;;;;;;;;6341233;28;20011;-78
2023/06/06 04:40:00;;;;;;;8.85;3.33;;;;;;;;;;6344206;28;20030;-78
2023/06/06 04:43:01;;;;;;;11.93;3.67;;;;;;;;;;6341673;28;20046;-78
2023/06/06 04:46:01;;;;;;;8.67;3.77;;;;;;;;;;6341991;28;20031;-78
2023/06/06 04:49:01;;;;;;;9.13;3.57;;;;;;;;;;6339489;28;20028;-78
2023/06/06 04:52:05;;;;;;;7.53;3.40;;;;;;;;;;6334579;28;20075;-78
2023/06/06 04:55:07;;;;;;;9.75;3.30;;;;;;;;;;6341374;28;20497;-78
2023/06/06 04:58:07;;;;;;;6.05;2.90;;;;;;;;;;6343428;28;20066;-77
2023/06/06 05:01:07;;;;;;;8.03;3.50;;;;;;;;;;6336683;28;20028;-78
2023/06/06 05:04:08;;;;;;;9.90;3.20;;;;;;;;;;6323478;28;20125;-78
2023/06/06 05:07:08;;;;;;;10.80;3.73;;;;;;;;;;6326349;28;20032;-78
2023/06/06 05:10:09;;;;;;;7.27;3.07;;;;;;;;;;6342493;28;20076;-78
2023/06/06 05:13:09;;;;;;;5.10;2.23;;;;;;;;;;6341150;28;20032;-78
2023/06/06 05:16:10;;;;;;;7.47;3.33;;;;;;;;;;6342735;28;20019;-78
2023/06/06 05:19:10;;;;;;;7.63;3.40;;;;;;;;;;6330432;28;20043;-77
2023/06/06 05:22:10;;;;;;;7.43;3.13;;;;;;;;;;6325371;28;20020;-77
2023/06/06 05:25:10;;;;;;;10.20;3.10;;;;;;;;;;6333682;28;20097;-77
2023/06/06 05:28:11;;;;;;;8.00;3.22;;;;;;;;;;6343057;28;20524;-77
2023/06/06 05:31:16;;;;;;;7.03;3.40;;;;;;;;;;6331155;28;20028;-78
2023/06/06 05:34:16;;;;;;;14.63;3.20;;;;;;;;;;6316488;28;20043;-78
2023/06/06 05:37:18;;;;;;;9.83;2.93;;;;;;;;;;6332630;28;20513;-77
2023/06/06 05:40:18;;;;;;;9.27;3.35;;;;;;;;;;6330875;28;20465;-78
2023/06/06 05:43:18;;;;;;;5.20;2.80;;;;;;;;;;6346306;28;20020;-83
2023/06/06 05:46:18;;;;;;;4.13;2.60;;;;;;;;;;6346104;28;20057;-83
2023/06/06 05:49:19;;;;;;;11.43;3.23;;;;;;;;;;6346018;28;20488;-83
2023/06/06 05:52:20;;;;;;;14.00;3.07;;;;;;;;;;6334637;28;20133;-83
2023/06/06 05:55:27;;;;;;;14.40;3.93;;;;;;;;;;6340183;28;20083;-82
2023/06/06 05:58:27;;;;;;;13.75;3.20;;;;;;;;;;6340564;28;20037;-82
2023/06/06 06:01:30;;;;;;;6.20;3.10;;;;;;;;;;6342102;28;20015;-83
2023/06/06 06:04:30;;;;;;;9.93;2.75;;;;;;;;;;6343494;28;20106;-82
2023/06/06 06:07:30;;;;;;;7.10;2.63;;;;;;;;;;6345667;28;20076;-83
2023/06/06 06:10:31;;;;;;;6.83;2.60;;;;;;;;;;6343862;28;20019;-83
2023/06/06 06:13:32;;;;;;;;;;;;;;;;;;6345153;28;20023;-82
2023/06/06 06:16:33;;;;;;;5.80;2.40;;;;;;;;;;6349624;28;19949;-82
2023/06/06 06:19:34;;;;;;;7.78;2.50;;;;;;;;;;6348578;28;20097;-83
2023/06/06 06:22:36;;;;;;;5.73;2.80;;;;;;;;;;6348909;28;20017;-83
2023/06/06 06:25:37;;;;;;;10.00;2.88;;;;;;;;;;6348468;28;20008;-82
2023/06/06 06:28:37;;;;;;;7.57;2.55;;;;;;;;;;6348965;28;20028;-82
2023/06/06 06:31:37;;;;;;;7.93;2.77;;;;;;;;;;6345987;28;20572;-77
2023/06/06 06:34:38;;;;;;;8.70;2.38;;;;;;;;;;6314669;28;20037;-77
2023/06/06 06:37:39;;;;;;;6.77;2.80;;;;;;;;;;6344611;28;20019;-78
2023/06/06 06:40:39;;;;;;;6.32;2.45;;;;;;;;;;6346110;28;20401;-77
2023/06/06 06:43:40;;;;;;;5.07;2.77;;;;;;;;;;6345220;28;20015;-78
2023/06/06 06:46:40;;;;;;;6.23;2.37;;;;;;;;;;6345205;28;20012;-78
2023/06/06 06:49:40;;;;;;;5.63;2.30;;;;;;;;;;6343223;28;20452;-78
2023/06/06 06:52:41;;;;;;;6.05;2.55;;;;;;;;;;6345909;28;20020;-78
2023/06/06 06:55:44;;;;;;;6.17;3.07;;;;;;;;;;6343760;28;20027;-78
2023/06/06 06:58:44;;;;;;;11.10;2.55;;;;;;;;;;6345186;28;20031;-78
2023/06/06 07:01:48;;;;;;;10.77;2.93;;;;;;;;;;6344170;28;20047;-78
2023/06/06 07:04:48;;;;;;;8.02;2.60;;;;;;;;;;6345859;28;20915;-78
2023/06/06 07:07:53;;;;;;;10.33;2.93;;;;;;;;;;6331985;28;20020;-77
2023/06/06 07:10:53;;;;;;;6.25;3.38;;;;;;;;;;6335907;28;20023;-78
2023/06/06 07:13:53;;;;;;;10.70;3.03;;;;;;;;;;6345846;28;20038;-78
2023/06/06 07:16:53;;;;;;;11.97;3.07;;;;;;;;;;6345635;28;20102;-78
2023/06/06 07:19:53;;;;;;;7.27;3.43;;;;;;;;;;6345444;28;20041;-78
2023/06/06 07:22:55;;;;;;;10.57;3.03;;;;;;;;;;6322708;28;20049;-78
2023/06/06 07:25:55;;;;;;;5.82;2.63;;;;;;;;;;6345958;28;20011;-78
2023/06/06 07:28:55;;;;;;;;;;;;;;;;;;6344123;28;20026;-78
2023/06/06 07:31:55;;;;;;;7.43;3.13;;;;;;;;;;6338513;28;20495;-78
2023/06/06 07:34:56;;;;;;;;;;;;;;;;;;6345605;28;20081;-78
2023/06/06 07:37:56;;;;;;;7.07;2.65;;;;;;;;;;6338490;28;19999;-78
2023/06/06 07:40:56;;;;;;;;;;;;;;;;;;6346299;28;20023;-78
2023/06/06 07:43:57;;;;;;;5.85;3.17;;;;;;;;;;6344707;28;19977;-78
2023/06/06 07:46:57;;;;;;;;;;;;;;;;;;6341230;28;20019;-78
2023/06/06 07:49:58;;;;;;;9.23;3.67;;;;;;;;;;6316809;28;19961;-78
2023/06/06 07:52:58;;;;;;;8.60;3.30;;;;;;;;;;6340875;28;20039;-78
2023/06/06 07:55:58;;;;;;;8.07;3.25;;;;;;;;;;6343289;28;20027;-78
2023/06/06 07:58:59;;;;;;;;;;;;;;;;;;6336419;28;20058;-78
2023/06/06 08:01:59;;;;;;;9.60;3.67;;;;;;;;;;6344453;28;19999;-84
2023/06/06 08:04:59;;;;;;;10.20;2.80;;;;;;;;;;6349448;28;20729;-84
2023/06/06 08:08:01;;;;;;;4.73;2.73;;;;;;;;;;6350602;28;20074;-84
2023/06/06 08:11:01;;;;;;;8.85;3.22;;;;;;;;;;6349187;28;20057;-83
2023/06/06 08:14:01;;;;;;;9.37;3.17;;;;;;;;;;6345440;28;20031;-84
2023/06/06 08:17:02;;;;;;;7.37;3.47;;;;;;;;;;6349063;28;20022;-84
2023/06/06 08:20:07;;;;;;;7.13;2.92;;;;;;;;;;6352395;28;20019;-84
2023/06/06 08:23:07;;;;;;;5.13;2.47;;;;;;;;;;6349248;28;20024;-83
2023/06/06 08:26:07;;;;;;;7.93;3.93;;;;;;;;;;6344920;28;20373;-80
2023/06/06 08:29:08;;;;;;;6.37;2.97;;;;;;;;;;6352097;28;20016;-81
2023/06/06 08:32:08;;;;;;;;;;;;;;;;;;6347878;28;20046;-83
2023/06/06 08:35:09;;;;;;;8.13;2.95;;;;;;;;;;6350711;28;19908;-83
2023/06/06 08:38:09;;;;;;;;;;;;;;;;;;6351527;28;20031;-83
2023/06/06 08:41:10;;;;;;;10.85;4.80;;;;;;;;;;6349937;28;19983;-84
2023/06/06 08:44:11;;;;;;;7.85;3.65;;;;;;;;;;6343960;28;20035;-84
2023/06/06 08:47:12;;;;;;;4.57;3.25;;;;;;;;;;6344695;28;20046;-84
2023/06/06 08:50:12;;;;;;;7.40;3.10;;;;;;;;;;6349080;28;20505;-84
2023/06/06 08:53:14;;;;;;;9.30;3.13;;;;;;;;;;6343898;27;20047;-78
2023/06/06 08:56:14;;;;;;;7.15;3.33;;;;;;;;;;6342987;28;20031;-78
2023/06/06 08:59:14;;;;;;;;;;;;;;;;;;6342918;28;20041;-78
2023/06/06 09:02:15;;;;;;;9.75;3.47;;;;;;;;;;6342157;28;20373;-78
2023/06/06 09:05:17;;;;;;;5.32;3.17;;;;;;;;;;6335044;28;20458;-78
2023/06/06 09:08:19;;;;;;;9.02;2.90;;;;;;;;;;6342521;28;20027;-78
2023/06/06 09:11:19;;;;;;;13.98;3.35;;;;;;;;;;6342982;28;20036;-75
2023/06/06 09:14:20;;;;;;;;;;;;;;;;;;6343355;28;20487;-75
2023/06/06 09:17:20;;;;;;;6.97;3.67;;;;;;;;;;6341718;28;19912;-75
2023/06/06 09:20:21;;;;;;;7.40;3.10;;;;;;;;;;6340764;28;20439;-75
2023/06/06 09:23:21;;;;;;;8.88;3.25;;;;;;;;;;6340676;28;20020;-76
2023/06/06 09:26:22;;;;;;;13.40;2.97;;;;;;;;;;6341206;28;20516;-77
2023/06/06 09:29:24;;;;;;;9.10;3.03;;;;;;;;;;6339572;28;20034;-77
2023/06/06 09:32:31;;;;;;;8.38;2.53;;;;;;;;;;6341501;28;20020;-77
2023/06/06 09:35:41;;;;;;;7.25;3.13;;;;;;;;;;6341060;28;20036;-77
2023/06/06 09:38:42;;;;;;;9.68;3.00;;;;;;;;;;6339573;28;20031;-77
2023/06/06 09:41:45;;;;;;;11.33;2.83;;;;;;;;;;6336489;28;20829;-77
2023/06/06 09:44:45;;;;;;;5.10;2.88;;;;;;;;;;6336127;28;20019;-77
2023/06/06 09:47:47;;;;;;;;;;;;;;;;;;6337003;28;20136;-78
2023/06/06 09:50:47;;;;;;;5.78;2.60;;;;;;;;;;6341996;28;20020;-77
2023/06/06 09:53:51;;;;;;;5.28;2.13;;;;;;;;;;6341808;28;20035;-77
2023/06/06 09:56:54;;;;;;;6.50;2.70;;;;;;;;;;6335486;28;20031;-77
2023/06/06 09:59:56;;;;;;;8.07;2.45;;;;;;;;;;6339164;28;20530;-77
2023/06/06 10:02:58;;;;;;;4.93;2.70;;;;;;;;;;6347889;28;20023;-83
2023/06/06 10:05:58;;;;;;;3.80;2.50;;;;;;;;;;6349607;28;20107;-84
2023/06/06 10:08:58;;;;;;;;;;;;;;;;;;6338457;28;20037;-84
2023/06/06 10:11:59;;;;;;;6.88;3.08;;;;;;;;;;6345068;28;19912;-84
2023/06/06 10:15:00;;;;;;;6.63;2.85;;;;;;;;;;6348723;27;20040;-84
2023/06/06 10:18:00;;;;;;;;;;;;;;;;;;6347071;28;20027;-83
2023/06/06 10:21:02;;;;;;;6.28;2.97;;;;;;;;;;6348636;28;20449;-77
2023/06/06 10:24:02;;;;;;;7.70;3.15;;;;;;;;;;6337693;28;20023;-78
2023/06/06 10:27:02;;;;;;;;;;;;;;;;;;6346217;28;20599;-78
2023/06/06 10:30:09;;;;;;;11.73;3.00;;;;;;;;;;6345710;28;20014;-78
2023/06/06 10:33:13;;;;;;;4.55;2.58;;;;;;;;;;6346664;28;20034;-78
2023/06/06 10:36:16;;;;;;;12.23;3.35;;;;;;;;;;6347939;28;20022;-77
2023/06/06 10:39:17;;;;;;;5.53;2.92;;;;;;;;;;6343910;28;20028;-78
2023/06/06 10:42:17;;;;;;;;;;;;;;;;;;6343615;28;20166;-77
2023/06/06 10:45:38;;;;;;;9.20;3.53;;;;;;;;;;6340339;28;20380;-78
2023/06/06 10:48:39;;;;;;;10.45;3.60;;;;;;;;;;6346716;28;20016;-78
2023/06/06 10:51:40;;;;;;;7.07;3.28;;;;;;;;;;6342454;27;20036;-77
2023/06/06 10:54:41;;;;;;;8.93;3.35;;;;;;;;;;6344476;28;20027;-77
2023/06/06 10:57:41;;;;;;;;;;;;;;;;;;6345953;28;20103;-78
2023/06/06 11:00:45;;;;;;;4.63;3.17;;;;;;;;;;6346385;28;19912;-78
2023/06/06 11:03:45;;;;;;;5.93;3.42;;;;;;;;;;6346342;28;20016;-77
2023/06/06 11:06:47;;;;;;;7.20;3.75;;;;;;;;;;6347442;28;20024;-77
2023/06/06 11:09:48;;;;;;;7.57;3.72;;;;;;;;;;6346216;28;20055;-78
2023/06/06 11:12:52;;;;;;;7.88;3.25;;;;;;;;;;6347752;28;20502;-78
2023/06/06 11:15:56;;;;;;;10.18;3.75;;;;;;;;;;6339297;28;20119;-78
2023/06/06 11:19:03;;;;;;;10.93;3.25;;;;;;;;;;6346485;28;20024;-78
2023/06/06 11:22:03;;;;;;;12.18;4.00;;;;;;;;;;6346801;28;20015;-78
2023/06/06 11:25:04;;;;;;;6.73;3.57;;;;;;;;;;6348179;28;20023;-78
2023/06/06 11:28:06;;;;;;;7.85;3.72;;;;;;;;;;6343440;28;20485;-78
2023/06/06 11:31:06;;;;;;;7.05;3.90;;;;;;;;;;6343462;28;20027;-78
2023/06/06 11:34:08;;;;;;;6.10;4.20;;;;;;;;;;6345521;28;20046;-78
2023/06/06 11:37:08;;;;;;;;;;;;;;;;;;6343206;28;20016;-77
2023/06/06 11:40:09;;;;;;;9.17;3.90;;;;;;;;;;6341696;28;19903;-78
2023/06/06 11:43:09;;;;;;;8.68;4.05;;;;;;;;;;6342913;28;20540;-78
2023/06/06 11:46:10;;;;;;;16.10;4.03;;;;;;;;;;6344677;28;20031;-78
2023/06/06 11:49:11;;;;;;;8.05;3.10;;;;;;;;;;6345706;28;20344;-78
2023/06/06 11:52:11;;;;;;;9.43;4.32;;;;;;;;;;6343599;28;20067;-78
2023/06/06 11:55:12;;;;;;;10.27;4.13;;;;;;;;;;6344235;28;20417;-78
2023/06/06 11:58:12;;;;;;;11.07;4.37;;;;;;;;;;6344977;28;20035;-78
2023/06/06 12:01:15;;;;;;;13.00;5.22;;;;;;;;;;6343572;28;20587;-78
2023/06/06 12:04:24;;;;;;;9.88;4.50;;;;;;;;;;6344678;28;20024;-78
2023/06/06 12:07:25;;;;;;;10.15;4.65;;;;;;;;;;6340464;28;20020;-78
2023/06/06 12:10:30;;;;;;;14.53;4.70;;;;;;;;;;6339364;28;20023;-77
2023/06/06 12:13:33;;;;;;;7.97;3.90;;;;;;;;;;6344249;28;20103;-77
2023/06/06 12:16:33;;;;;;;9.30;3.95;;;;;;;;;;6342366;28;20020;-77
2023/06/06 12:19:34;;;;;;;9.23;4.27;;;;;;;;;;6341294;28;20359;-77
2023/06/06 12:22:37;;;;;;;9.10;4.18;;;;;;;;;;6332930;28;20054;-82
2023/06/06 12:25:38;;;;;;;6.65;3.53;;;;;;;;;;6339388;28;20023;-82
2023/06/06 12:28:59;;;;;;;10.18;4.68;;;;;;;;;;6348268;28;20019;-82
2023/06/06 12:32:19;;;;;;;9.30;4.07;;;;;;;;;;6343369;28;20031;-82
2023/06/06 12:35:21;;;;;;;6.43;3.07;;;;;;;;;;6338573;28;20156;-82
2023/06/06 12:38:21;;;;;;;9.10;4.00;;;;;;;;;;6343241;28;20065;-82
2023/06/06 12:41:22;;;;;;;5.90;3.70;;;;;;;;;;6341127;28;20020;-78
2023/06/06 12:44:23;;;;;;;7.03;3.67;;;;;;;;;;6341885;28;20031;-77
2023/06/06 12:47:23;;;;;;;;;;;;;;;;;;6343085;28;20110;-77
2023/06/06 12:50:23;;;;;;;11.60;5.43;;;;;;;;;;6337311;28;19972;-77
2023/06/06 12:53:25;;;;;;;6.60;4.17;;;;;;;;;;6338067;28;20872;-77
2023/06/06 12:56:25;;;;;;;8.07;4.18;;;;;;;;;;6340755;28;20030;-78
2023/06/06 12:59:26;;;;;;;9.27;4.50;;;;;;;;;;6341684;28;20470;-77
2023/06/06 13:02:26;;;;;;;8.50;4.85;;;;;;;;;;6342721;28;20027;-77
2023/06/06 13:05:27;;;;;;;7.10;4.00;;;;;;;;;;6335761;28;20078;-77
2023/06/06 13:08:27;;;;;;;10.97;5.63;;;;;;;;;;6341759;28;20028;-76
2023/06/06 13:11:28;;;;;;;9.23;4.90;;;;;;;;;;6341434;28;20030;-77
2023/06/06 13:14:29;;;;;;;8.02;5.05;;;;;;;;;;6340672;28;20043;-77
2023/06/06 13:17:29;;;;;;;6.70;4.53;;;;;;;;;;6339640;28;20095;-78
2023/06/06 13:20:31;;;;;;;8.17;5.03;;;;;;;;;;6338963;28;20083;-77
2023/06/06 13:23:31;;;;;;;8.15;4.63;;;;;;;;;;6341694;28;20531;-78
2023/06/06 13:26:32;;;;;;;8.20;4.60;;;;;;;;;;6341919;28;20051;-77
2023/06/06 13:29:32;;;;;;;11.07;5.63;;;;;;;;;;6341683;28;20028;-78
2023/06/06 13:32:33;;;;;;;9.10;4.90;;;;;;;;;;6342803;28;20547;-77
2023/06/06 13:35:33;;;;;;;8.93;4.82;;;;;;;;;;6339040;28;20102;-77
2023/06/06 13:38:33;;;;;;;10.93;5.30;;;;;;;;;;6341533;28;20016;-77
2023/06/06 13:41:35;;;;;;;11.25;5.43;;;;;;;;;;6342424;28;20004;-77
2023/06/06 13:44:35;;;;;;;;;;;;;;;;;;6342040;28;20015;-78
2023/06/06 13:47:35;;;;;;;8.10;5.78;;;;;;;;;;6348565;28;19961;-77
2023/06/06 13:50:36;;;;;;;11.47;5.90;;;;;;;;;;6347357;28;20112;-83
2023/06/06 13:53:37;;;;;;;12.07;5.53;;;;;;;;;;6348539;28;20035;-82
2023/06/06 13:56:44;;;;;;;11.90;6.97;;;;;;;;;;6350699;28;20042;-80
2023/06/06 13:59:44;;;;;;;10.95;6.38;;;;;;;;;;6348735;28;20011;-80
2023/06/06 14:02:44;;;;;;;11.40;5.27;;;;;;;;;;6349140;28;20441;-82
2023/06/06 14:05:44;;;;;;;10.80;5.50;;;;;;;;;;6348894;28;20016;-83
2023/06/06 14:08:45;;;;;;;8.87;5.60;;;;;;;;;;6347324;28;20107;-82
2023/06/06 14:11:46;;;;;;;10.13;5.30;;;;;;;;;;6336008;28;20027;-82
2023/06/06 14:14:47;;;;;;;9.95;6.15;;;;;;;;;;6348049;28;20024;-83
2023/06/06 14:17:47;;;;;;;;;;;;;;;;;;6349143;28;20018;-82
2023/06/06 14:20:49;;;;;;;9.55;5.70;;;;;;;;;;6348398;27;19907;-82
2023/06/06 14:23:51;;;;;;;9.35;5.57;;;;;;;;;;6337218;28;20474;-82
2023/06/06 14:26:51;;;;;;;;;;;;;;;;;;6348788;28;20066;-82
2023/06/06 14:29:51;;;;;;;8.30;4.57;;;;;;;;;;6348115;28;19939;-83
2023/06/06 14:32:52;;;;;;;7.07;4.83;;;;;;;;;;6341245;28;20016;-82
2023/06/06 14:35:52;;;;;;;8.23;4.80;;;;;;;;;;6338727;28;20058;-83
2023/06/06 14:38:52;;;;;;;6.97;4.80;;;;;;;;;;6341520;28;20030;-82
2023/06/06 14:41:53;;;;;;;9.03;4.63;;;;;;;;;;6348067;28;20015;-77
2023/06/06 14:44:53;;;;;;;10.17;5.43;;;;;;;;;;6344593;28;20158;-77
2023/06/06 14:47:54;;;;;;;10.13;4.87;;;;;;;;;;6340353;28;20550;-77
2023/06/06 14:50:54;;;;;;;6.60;4.93;;;;;;;;;;6346822;28;20273;-77
2023/06/06 14:53:55;;;;;;;11.27;4.82;;;;;;;;;;6344901;28;20106;-77
2023/06/06 14:56:55;;;;;;;9.13;5.77;;;;;;;;;;6346121;28;20015;-77
2023/06/06 14:59:55;;;;;;;11.93;5.72;;;;;;;;;;6344004;28;20011;-77
2023/06/06 15:02:55;;;;;;;11.43;5.07;;;;;;;;;;6348092;28;20523;-82
2023/06/06 15:05:56;;;;;;;7.43;4.47;;;;;;;;;;6350486;28;20023;-83
2023/06/06 15:08:56;;;;;;;8.17;5.13;;;;;;;;;;6350074;28;20476;-83
2023/06/06 15:11:57;;;;;;;13.03;5.80;;;;;;;;;;6351711;28;20015;-83
2023/06/06 15:14:57;;;;;;;8.95;4.75;;;;;;;;;;6349597;28;20016;-83
2023/06/06 15:17:57;;;;;;;10.57;4.20;;;;;;;;;;6350067;28;20523;-83
2023/06/06 15:20:58;;;;;;;8.97;4.57;;;;;;;;;;6333029;28;20008;-83
2023/06/06 15:23:58;;;;;;;6.70;4.67;;;;;;;;;;6349958;28;20599;-83
2023/06/06 15:27:00;;;;;;;12.23;6.30;;;;;;;;;;6352499;28;20393;-83
2023/06/06 15:30:00;;;;;;;9.52;4.65;;;;;;;;;;6353322;28;20420;-83
2023/06/06 15:33:00;;;;;;;8.10;5.10;;;;;;;;;;6351020;28;20088;-83
2023/06/06 15:36:00;;;;;;;8.97;5.53;;;;;;;;;;6349804;27;20028;-83
2023/06/06 15:39:01;;;;;;;9.52;4.80;;;;;;;;;;6356997;28;20020;-83
2023/06/06 15:42:01;;;;;;;10.40;4.33;;;;;;;;;;6353811;28;20007;-83
2023/06/06 15:45:02;;;;;;;8.07;4.37;;;;;;;;;;6350116;28;20058;-83
2023/06/06 15:48:03;;;;;;;10.88;5.13;;;;;;;;;;6352872;28;20016;-83
2023/06/06 15:51:03;;;;;;;6.90;4.17;;;;;;;;;;6353315;28;20506;-77
2023/06/06 15:54:03;;;;;;;6.97;4.20;;;;;;;;;;6347059;28;20050;-78
2023/06/06 15:57:04;;;;;;;7.10;3.90;;;;;;;;;;6348135;28;20500;-78
2023/06/06 16:00:04;;;;;;;8.60;4.53;;;;;;;;;;6327199;28;20381;-78
2023/06/06 16:03:05;;;;;;;13.50;5.57;;;;;;;;;;6343049;28;20020;-78
2023/06/06 16:06:05;;;;;;;12.10;5.27;;;;;;;;;;6326760;28;20016;-78
2023/06/06 16:09:05;;;;;;;15.07;5.10;;;;;;;;;;6344466;28;20022;-78
2023/06/06 16:12:06;;;;;;;9.27;4.90;;;;;;;;;;6345084;28;20025;-78
2023/06/06 16:15:06;;;;;;;10.20;4.80;;;;;;;;;;6339413;28;20015;-78
2023/06/06 16:18:06;;;;;;;10.37;5.27;;;;;;;;;;6343235;28;20024;-78
2023/06/06 16:21:06;;;;;;;9.32;4.82;;;;;;;;;;6326260;28;20012;-78
2023/06/06 16:24:07;;;;;;;8.57;3.97;;;;;;;;;;6322577;28;20103;-78
2023/06/06 16:27:07;;;;;;;10.53;4.67;;;;;;;;;;6343126;28;20082;-78
2023/06/06 16:30:08;;;;;;;10.17;5.57;;;;;;;;;;6342568;28;20528;-78
2023/06/06 16:33:11;;;;;;;16.38;6.22;;;;;;;;;;6325205;28;20386;-78
2023/06/06 16:36:11;;;;;;;14.48;6.20;;;;;;;;;;6318567;28;20474;-77
2023/06/06 16:39:13;;;;;;;10.07;5.83;;;;;;;;;;6337574;28;20016;-75
2023/06/06 16:42:13;;;;;;;11.00;5.43;;;;;;;;;;6343064;28;20035;-75
2023/06/06 16:45:13;;;;;;;10.60;5.57;;;;;;;;;;6342657;28;20031;-76
2023/06/06 16:48:14;;;;;;;10.00;6.17;;;;;;;;;;6323994;28;20124;-76
2023/06/06 16:51:16;;;;;;;13.17;5.57;;;;;;;;;;6338105;28;20048;-75
2023/06/06 16:54:16;;;;;;;11.18;4.90;;;;;;;;;;6342161;28;20082;-75
2023/06/06 16:57:16;;;;;;;9.07;5.00;;;;;;;;;;6324019;28;20027;-75
2023/06/06 17:00:18;;;;;;;7.82;4.78;;;;;;;;;;6341984;28;20082;-75
2023/06/06 17:03:19;;;;;;;10.60;5.25;;;;;;;;;;6342540;28;20011;-77
2023/06/06 17:06:20;;;;;;;13.47;5.47;;;;;;;;;;6316282;28;20119;-77
2023/06/06 17:09:21;;;;;;;13.20;5.20;;;;;;;;;;6324722;28;20027;-77
2023/06/06 17:12:22;;;;;;;9.53;4.40;;;;;;;;;;6343313;28;20030;-76
2023/06/06 17:15:22;;;;;;;8.48;4.70;;;;;;;;;;6337025;28;20384;-76
2023/06/06 17:18:22;;;;;;;9.67;4.77;;;;;;;;;;6341708;28;20012;-77
2023/06/06 17:21:23;;;;;;;13.57;6.27;;;;;;;;;;6324498;28;20105;-77
2023/06/06 17:24:23;;;;;;;8.83;4.80;;;;;;;;;;6343748;28;20081;-77
2023/06/06 17:27:24;;;;;;;10.10;5.60;;;;;;;;;;6328748;28;20053;-78
2023/06/06 17:30:25;;;;;;;6.97;5.00;;;;;;;;;;6329573;28;20065;-78
2023/06/06 17:33:26;;;;;;;9.00;5.50;;;;;;;;;;6334976;28;20053;-77
2023/06/06 17:36:27;;;;;;;10.20;5.57;;;;;;;;;;6315591;28;20470;-78
2023/06/06 17:39:27;;;;;;;9.60;5.77;;;;;;;;;;6342331;28;20023;-78
2023/06/06 17:42:28;;;;;;;10.67;5.87;;;;;;;;;;6342200;28;20020;-78
2023/06/06 17:45:28;;;;;;;10.33;5.67;;;;;;;;;;6342517;28;20024;-78
2023/06/06 17:48:29;;;;;;;10.00;5.15;;;;;;;;;;6340065;28;20109;-76
2023/06/06 17:51:30;;;;;;;10.43;6.10;;;;;;;;;;6341682;28;20055;-77
2023/06/06 17:54:30;;;;;;;9.52;5.75;;;;;;;;;;6339755;28;20539;-77
2023/06/06 17:57:30;;;;;;;9.27;5.43;;;;;;;;;;6342346;28;20024;-77
2023/06/06 18:00:31;;;;;;;9.40;5.33;;;;;;;;;;6324406;28;20114;-78
2023/06/06 18:03:31;;;;;;;9.97;5.67;;;;;;;;;;6342342;28;20047;-78
2023/06/06 18:06:31;;;;;;;12.80;5.60;;;;;;;;;;6342645;28;20026;-78
2023/06/06 18:09:32;;;;;;;7.37;4.97;;;;;;;;;;6322174;28;20034;-77